Time;durP1;ratioP1;P1;durP2;ratioP2;P2;SDS_P1;SDS_P2;PMS_P1;PMS_P2;Temp;Humidity;BMP_temperature;BMP_pressure;BME280_temperature;BME280_humidity;BME280_pressure;Samples;Min_cycle;Max_cycle;Signal;HPM_P1;HPM_P2
2021/09/19 00:00:00;;;;;;;2.20;1.60;;;;;;;;;;5051116;28;20079;-61
2021/09/19 00:02:26;;;;;;;3.00;1.73;;;;;;;;;;5056868;28;20380;-61
2021/09/19 00:04:52;;;;;;;3.97;1.98;;;;;;;;;;5072096;28;20380;-60
2021/09/19 00:07:18;;;;;;;2.13;1.42;;;;;;;;;;5037026;28;20529;-61
2021/09/19 00:09:44;;;;;;;2.95;1.63;;;;;;;;;;5044379;28;20069;-61
2021/09/19 00:12:10;;;;;;;6.50;2.15;;;;;;;;;;5053174;28;20064;-61
2021/09/19 00:14:36;;;;;;;2.42;1.58;;;;;;;;;;5046817;28;20026;-60
2021/09/19 00:17:03;;;;;;;2.38;1.65;;;;;;;;;;5053376;28;20031;-61
2021/09/19 00:19:29;;;;;;;2.13;1.42;;;;;;;;;;5056953;28;20072;-61
2021/09/19 00:21:55;;;;;;;3.13;1.70;;;;;;;;;;5029212;28;20118;-60
2021/09/19 00:24:23;;;;;;;4.00;2.00;;;;;;;;;;5043977;28;20515;-61
2021/09/19 00:26:49;;;;;;;4.15;1.70;;;;;;;;;;5049916;28;20406;-60
2021/09/19 00:29:15;;;;;;;2.97;1.70;;;;;;;;;;5045352;28;20056;-60
2021/09/19 00:31:41;;;;;;;3.92;1.90;;;;;;;;;;5055779;28;20465;-61
2021/09/19 00:34:07;;;;;;;4.70;1.92;;;;;;;;;;5055784;28;20055;-61
2021/09/19 00:36:33;;;;;;;3.33;2.03;;;;;;;;;;5052644;28;20128;-60
2021/09/19 00:38:59;;;;;;;2.50;1.65;;;;;;;;;;5044772;28;20061;-60
2021/09/19 00:41:25;;;;;;;3.17;1.67;;;;;;;;;;5051626;28;20020;-61
2021/09/19 00:43:51;;;;;;;7.72;2.10;;;;;;;;;;5047857;28;20763;-61
2021/09/19 00:46:17;;;;;;;3.65;1.73;;;;;;;;;;5062009;28;20064;-60
2021/09/19 00:48:43;;;;;;;5.18;1.95;;;;;;;;;;5064016;28;20422;-61
2021/09/19 00:51:10;;;;;;;3.33;1.85;;;;;;;;;;5046732;28;20037;-60
2021/09/19 00:53:37;;;;;;;4.82;2.00;;;;;;;;;;5053873;28;20060;-61
2021/09/19 00:56:04;;;;;;;4.30;2.20;;;;;;;;;;5049268;28;20353;-60
2021/09/19 00:58:32;;;;;;;3.80;1.80;;;;;;;;;;5050071;28;20037;-60
2021/09/19 01:00:58;;;;;;;2.70;1.60;;;;;;;;;;5055689;28;20053;-61
2021/09/19 01:03:26;;;;;;;9.73;2.70;;;;;;;;;;5050801;28;20139;-60
2021/09/19 01:05:52;;;;;;;2.47;1.75;;;;;;;;;;5050973;28;20029;-61
2021/09/19 01:08:19;;;;;;;4.88;2.20;;;;;;;;;;5047639;28;20128;-60
2021/09/19 01:10:45;;;;;;;3.03;1.80;;;;;;;;;;5053718;28;20080;-60
2021/09/19 01:13:12;;;;;;;2.75;1.67;;;;;;;;;;5060911;28;20033;-61
2021/09/19 01:15:39;;;;;;;3.72;1.60;;;;;;;;;;5055940;28;20374;-61
2021/09/19 01:18:06;;;;;;;3.15;2.05;;;;;;;;;;5058874;28;20120;-60
2021/09/19 01:20:33;;;;;;;3.42;2.13;;;;;;;;;;5043846;28;20489;-61
2021/09/19 01:23:01;;;;;;;2.90;1.80;;;;;;;;;;5071697;28;20033;-61
2021/09/19 01:25:28;;;;;;;3.97;2.00;;;;;;;;;;5045178;28;20033;-59
2021/09/19 01:27:54;;;;;;;3.05;1.85;;;;;;;;;;5054700;28;20121;-61
2021/09/19 01:30:20;;;;;;;3.70;1.80;;;;;;;;;;5048204;28;20029;-61
2021/09/19 01:32:46;;;;;;;3.45;1.60;;;;;;;;;;5071067;28;20115;-61
2021/09/19 01:35:12;;;;;;;3.80;2.17;;;;;;;;;;5047473;28;20488;-61
2021/09/19 01:37:38;;;;;;;3.67;2.10;;;;;;;;;;5051700;28;20024;-60
2021/09/19 01:40:05;;;;;;;3.67;1.95;;;;;;;;;;5058872;28;20062;-61
2021/09/19 01:42:31;;;;;;;2.13;1.60;;;;;;;;;;5045285;28;20044;-61
2021/09/19 01:44:57;;;;;;;2.45;1.52;;;;;;;;;;5057963;28;20035;-61
2021/09/19 01:47:23;;;;;;;3.45;1.90;;;;;;;;;;5051042;28;20029;-61
2021/09/19 01:49:50;;;;;;;4.07;1.85;;;;;;;;;;5061246;28;20039;-61
2021/09/19 01:52:17;;;;;;;4.57;1.63;;;;;;;;;;5048178;28;20026;-61
2021/09/19 01:54:43;;;;;;;5.55;2.67;;;;;;;;;;5058858;28;20089;-60
2021/09/19 01:57:09;;;;;;;3.35;1.73;;;;;;;;;;5047243;28;20020;-61
2021/09/19 01:59:35;;;;;;;6.43;2.40;;;;;;;;;;5039538;28;20112;-61
2021/09/19 02:02:02;;;;;;;4.90;1.73;;;;;;;;;;5051719;28;20032;-60
2021/09/19 02:04:28;;;;;;;3.03;1.90;;;;;;;;;;5058048;28;20094;-60
2021/09/19 02:06:54;;;;;;;4.93;1.88;;;;;;;;;;5053730;28;20025;-61
2021/09/19 02:09:20;;;;;;;4.25;1.80;;;;;;;;;;5040114;28;20037;-61
2021/09/19 02:11:46;;;;;;;4.72;2.30;;;;;;;;;;5049562;28;20056;-61
2021/09/19 02:14:12;;;;;;;4.10;1.88;;;;;;;;;;5060648;28;20460;-61
2021/09/19 02:16:38;;;;;;;3.65;2.35;;;;;;;;;;5048813;28;20074;-61
2021/09/19 02:19:04;;;;;;;5.78;2.03;;;;;;;;;;5048642;28;20100;-60
2021/09/19 02:21:30;;;;;;;5.10;1.92;;;;;;;;;;5053750;28;20370;-61
2021/09/19 02:23:56;;;;;;;2.65;1.83;;;;;;;;;;5042344;28;20051;-60
2021/09/19 02:26:22;;;;;;;3.67;2.00;;;;;;;;;;5040237;28;20116;-61
2021/09/19 02:28:48;;;;;;;3.10;1.90;;;;;;;;;;5056521;28;20526;-61
2021/09/19 02:31:14;;;;;;;2.50;1.58;;;;;;;;;;5058997;28;20032;-61
2021/09/19 02:33:40;;;;;;;3.58;1.70;;;;;;;;;;5047868;28;20074;-61
2021/09/19 02:36:06;;;;;;;6.07;2.67;;;;;;;;;;5025451;28;20040;-61
2021/09/19 02:38:32;;;;;;;4.18;2.33;;;;;;;;;;5062855;28;20105;-60
2021/09/19 02:40:58;;;;;;;3.85;1.95;;;;;;;;;;5055547;28;20032;-61
2021/09/19 02:43:24;;;;;;;3.05;1.83;;;;;;;;;;5060723;28;20103;-61
2021/09/19 02:45:50;;;;;;;5.32;2.03;;;;;;;;;;5059914;28;20037;-60
2021/09/19 02:48:16;;;;;;;3.85;2.03;;;;;;;;;;5042537;28;20029;-61
2021/09/19 02:50:42;;;;;;;3.22;1.77;;;;;;;;;;5050600;28;20075;-61
2021/09/19 02:53:08;;;;;;;2.75;2.03;;;;;;;;;;5052566;28;20039;-61
2021/09/19 02:55:34;;;;;;;4.47;1.70;;;;;;;;;;5049297;28;20420;-61
2021/09/19 02:58:00;;;;;;;3.63;2.03;;;;;;;;;;5045642;28;20110;-61
2021/09/19 03:00:26;;;;;;;3.20;1.98;;;;;;;;;;5061652;28;20048;-61
2021/09/19 03:02:54;;;;;;;3.63;1.92;;;;;;;;;;5044163;28;20110;-61
2021/09/19 03:05:20;;;;;;;3.75;1.77;;;;;;;;;;5045867;28;20433;-61
2021/09/19 03:07:46;;;;;;;2.83;1.52;;;;;;;;;;5055123;28;20039;-61
2021/09/19 03:10:13;;;;;;;2.58;1.65;;;;;;;;;;5051357;28;20028;-61
2021/09/19 03:12:39;;;;;;;4.15;1.77;;;;;;;;;;5054161;28;20048;-61
2021/09/19 03:15:05;;;;;;;3.30;1.92;;;;;;;;;;5051831;28;20056;-61
2021/09/19 03:17:31;;;;;;;11.77;2.63;;;;;;;;;;5052470;28;20028;-60
2021/09/19 03:19:57;;;;;;;4.80;1.80;;;;;;;;;;5057655;28;20049;-61
2021/09/19 03:22:23;;;;;;;3.30;1.90;;;;;;;;;;5056148;28;20037;-61
2021/09/19 03:24:49;;;;;;;2.78;1.85;;;;;;;;;;5038926;28;20148;-60
2021/09/19 03:27:15;;;;;;;3.65;1.50;;;;;;;;;;5032139;28;20413;-61
2021/09/19 03:29:41;;;;;;;3.40;2.10;;;;;;;;;;5041644;28;20112;-60
2021/09/19 03:32:07;;;;;;;3.95;2.20;;;;;;;;;;5046194;28;20591;-61
2021/09/19 03:34:34;;;;;;;3.05;2.05;;;;;;;;;;5049119;28;20029;-61
2021/09/19 03:37:00;;;;;;;3.00;1.65;;;;;;;;;;5054085;28;20017;-61
2021/09/19 03:39:27;;;;;;;5.22;2.22;;;;;;;;;;5046420;28;20021;-61
2021/09/19 03:41:53;;;;;;;3.30;2.28;;;;;;;;;;5048919;28;20475;-60
2021/09/19 03:44:19;;;;;;;3.17;1.80;;;;;;;;;;5050159;28;20423;-61
2021/09/19 03:46:45;;;;;;;2.88;1.70;;;;;;;;;;5044266;28;20061;-61
2021/09/19 03:49:11;;;;;;;4.43;2.67;;;;;;;;;;5042140;28;20044;-61
2021/09/19 03:51:37;;;;;;;2.35;1.85;;;;;;;;;;5044598;28;20116;-61
2021/09/19 03:54:03;;;;;;;4.70;2.00;;;;;;;;;;5046174;28;20108;-61
2021/09/19 03:56:29;;;;;;;4.45;1.70;;;;;;;;;;5047296;28;20044;-61
2021/09/19 03:58:56;;;;;;;4.13;2.10;;;;;;;;;;5040802;28;20466;-60
2021/09/19 04:01:22;;;;;;;3.30;1.88;;;;;;;;;;5037874;28;20043;-61
2021/09/19 04:03:48;;;;;;;5.10;2.28;;;;;;;;;;5045070;28;20022;-61
2021/09/19 04:06:14;;;;;;;4.68;2.20;;;;;;;;;;5047569;28;20051;-61
2021/09/19 04:08:40;;;;;;;5.18;2.03;;;;;;;;;;5052491;28;20485;-60
2021/09/19 04:11:06;;;;;;;3.80;2.05;;;;;;;;;;5051131;28;20059;-61
2021/09/19 04:13:32;;;;;;;4.30;2.15;;;;;;;;;;5050581;28;20025;-60
2021/09/19 04:16:00;;;;;;;3.63;2.10;;;;;;;;;;5055456;28;20021;-61
2021/09/19 04:18:26;;;;;;;3.47;2.17;;;;;;;;;;5047811;28;20024;-61
2021/09/19 04:20:52;;;;;;;4.07;2.10;;;;;;;;;;5042093;28;20052;-60
2021/09/19 04:23:18;;;;;;;4.50;2.10;;;;;;;;;;5060690;28;20115;-61
2021/09/19 04:25:44;;;;;;;3.67;2.05;;;;;;;;;;5048581;28;20452;-60
2021/09/19 04:28:09;;;;;;;3.65;2.05;;;;;;;;;;5061894;28;20031;-61
2021/09/19 04:30:43;;;;;;;3.35;1.95;;;;;;;;;;5066526;28;20036;-61
2021/09/19 04:33:09;;;;;;;3.05;1.83;;;;;;;;;;5053500;28;20460;-61
2021/09/19 04:35:35;;;;;;;3.53;2.00;;;;;;;;;;5054300;28;20057;-61
2021/09/19 04:38:01;;;;;;;4.35;2.30;;;;;;;;;;5035980;28;20384;-61
2021/09/19 04:40:27;;;;;;;4.00;2.17;;;;;;;;;;5050058;28;20021;-60
2021/09/19 04:42:53;;;;;;;4.35;1.90;;;;;;;;;;5057879;28;20032;-60
2021/09/19 04:45:19;;;;;;;4.32;2.20;;;;;;;;;;5066221;28;20047;-61
2021/09/19 04:47:45;;;;;;;3.38;1.90;;;;;;;;;;5047885;28;20033;-61
2021/09/19 04:50:14;;;;;;;5.47;2.28;;;;;;;;;;5046675;28;20392;-61
2021/09/19 04:52:40;;;;;;;3.75;1.92;;;;;;;;;;5054321;28;20021;-61
2021/09/19 04:55:06;;;;;;;3.22;2.08;;;;;;;;;;5055841;28;20772;-61
2021/09/19 04:57:32;;;;;;;4.57;2.60;;;;;;;;;;5055044;28;20390;-60
2021/09/19 04:59:58;;;;;;;3.17;2.00;;;;;;;;;;5053950;28;20032;-61
2021/09/19 05:02:24;;;;;;;5.07;1.73;;;;;;;;;;5052421;28;20029;-61
2021/09/19 05:04:50;;;;;;;4.95;2.10;;;;;;;;;;5056803;28;20044;-60
2021/09/19 05:07:16;;;;;;;3.15;1.85;;;;;;;;;;5049116;28;20029;-61
2021/09/19 05:09:42;;;;;;;4.65;2.20;;;;;;;;;;5060042;28;20100;-60
2021/09/19 05:12:08;;;;;;;3.72;2.33;;;;;;;;;;5062046;28;20061;-61
2021/09/19 05:14:34;;;;;;;5.80;2.55;;;;;;;;;;5056886;28;20029;-61
2021/09/19 05:17:00;;;;;;;4.22;2.10;;;;;;;;;;5050902;28;20082;-61
2021/09/19 05:19:26;;;;;;;3.53;2.08;;;;;;;;;;5052756;28;20044;-61
2021/09/19 05:21:52;;;;;;;4.78;2.17;;;;;;;;;;5057634;28;20040;-61
2021/09/19 05:24:18;;;;;;;4.53;1.98;;;;;;;;;;5059890;28;20377;-61
2021/09/19 05:26:44;;;;;;;3.63;2.10;;;;;;;;;;5050994;28;20060;-61
2021/09/19 05:29:10;;;;;;;3.47;1.98;;;;;;;;;;5050406;28;20052;-61
2021/09/19 05:31:36;;;;;;;5.15;2.25;;;;;;;;;;5061808;28;20083;-61
2021/09/19 05:34:03;;;;;;;4.55;2.20;;;;;;;;;;5047597;28;20538;-61
2021/09/19 05:36:29;;;;;;;3.83;2.20;;;;;;;;;;5047154;28;20518;-61
2021/09/19 05:38:55;;;;;;;2.85;1.95;;;;;;;;;;5049182;28;20136;-61
2021/09/19 05:41:21;;;;;;;3.15;2.10;;;;;;;;;;5064420;28;20025;-60
2021/09/19 05:43:48;;;;;;;4.75;2.10;;;;;;;;;;5050931;28;20052;-59
2021/09/19 05:46:16;;;;;;;5.72;2.85;;;;;;;;;;5054799;28;20038;-61
2021/09/19 05:48:42;;;;;;;4.25;2.10;;;;;;;;;;5048227;28;20025;-61
2021/09/19 05:51:08;;;;;;;3.85;2.10;;;;;;;;;;5055729;28;20027;-61
2021/09/19 05:53:34;;;;;;;3.88;2.03;;;;;;;;;;5056213;28;20464;-61
2021/09/19 05:56:00;;;;;;;4.65;2.40;;;;;;;;;;5046871;28;20056;-61
2021/09/19 05:58:26;;;;;;;3.63;2.33;;;;;;;;;;5051259;28;20057;-61
2021/09/19 06:00:52;;;;;;;3.63;2.13;;;;;;;;;;5053111;28;20033;-61
2021/09/19 06:03:18;;;;;;;4.10;2.25;;;;;;;;;;5053069;28;20040;-61
2021/09/19 06:05:44;;;;;;;4.25;2.47;;;;;;;;;;5052836;28;20419;-60
2021/09/19 06:08:10;;;;;;;5.40;2.15;;;;;;;;;;5047993;28;20032;-61
2021/09/19 06:10:35;;;;;;;3.22;1.88;;;;;;;;;;5058954;28;20094;-61
2021/09/19 06:13:03;;;;;;;4.60;2.53;;;;;;;;;;5050895;28;20068;-61
2021/09/19 06:15:29;;;;;;;5.30;2.30;;;;;;;;;;5048118;28;20032;-61
2021/09/19 06:17:55;;;;;;;3.55;2.38;;;;;;;;;;5044057;28;20340;-61
2021/09/19 06:20:21;;;;;;;4.43;2.45;;;;;;;;;;5051556;28;20120;-61
2021/09/19 06:22:47;;;;;;;3.80;2.15;;;;;;;;;;5062422;28;20029;-61
2021/09/19 06:25:13;;;;;;;4.72;2.40;;;;;;;;;;5062005;28;20029;-61
2021/09/19 06:27:39;;;;;;;4.70;2.50;;;;;;;;;;5046099;28;20044;-61
2021/09/19 06:30:06;;;;;;;6.35;2.25;;;;;;;;;;5045410;28;20033;-61
2021/09/19 06:32:32;;;;;;;4.78;2.47;;;;;;;;;;5037824;28;20059;-61
2021/09/19 06:34:58;;;;;;;3.42;1.65;;;;;;;;;;5037442;28;20025;-60
2021/09/19 06:37:24;;;;;;;3.03;1.77;;;;;;;;;;5040123;28;20083;-60
2021/09/19 06:39:50;;;;;;;3.28;2.05;;;;;;;;;;5031761;28;20028;-61
2021/09/19 06:42:16;;;;;;;3.90;1.92;;;;;;;;;;5042276;28;20109;-61
2021/09/19 06:44:42;;;;;;;3.92;2.03;;;;;;;;;;5042814;28;20040;-61
2021/09/19 06:47:08;;;;;;;5.15;2.45;;;;;;;;;;5035207;28;20132;-61
2021/09/19 06:49:34;;;;;;;4.07;2.03;;;;;;;;;;5037730;28;20070;-61
2021/09/19 06:52:00;;;;;;;7.07;1.90;;;;;;;;;;5036622;28;20480;-61
2021/09/19 06:54:26;;;;;;;5.10;1.92;;;;;;;;;;5035255;28;20037;-61
2021/09/19 06:56:52;;;;;;;3.40;1.90;;;;;;;;;;5035802;28;20032;-61
2021/09/19 06:59:18;;;;;;;3.63;2.08;;;;;;;;;;5045265;28;20032;-61
2021/09/19 07:01:44;;;;;;;5.55;2.30;;;;;;;;;;5027888;28;20104;-61
2021/09/19 07:04:10;;;;;;;5.30;2.08;;;;;;;;;;5037436;28;20033;-61
2021/09/19 07:06:36;;;;;;;3.45;2.05;;;;;;;;;;5037751;28;20030;-61
2021/09/19 07:09:03;;;;;;;5.40;2.67;;;;;;;;;;5038015;28;20099;-61
2021/09/19 07:11:29;;;;;;;3.45;2.30;;;;;;;;;;5041668;28;20056;-61
2021/09/19 07:13:55;;;;;;;3.80;2.33;;;;;;;;;;5055115;28;20029;-61
2021/09/19 07:16:21;;;;;;;4.80;2.13;;;;;;;;;;5046995;28;20062;-60
2021/09/19 07:18:47;;;;;;;3.45;2.08;;;;;;;;;;5044389;28;20030;-60
2021/09/19 07:21:13;;;;;;;3.45;2.20;;;;;;;;;;5042192;28;20040;-61
2021/09/19 07:23:39;;;;;;;4.38;1.90;;;;;;;;;;5047892;28;20382;-61
2021/09/19 07:26:05;;;;;;;4.03;2.25;;;;;;;;;;5054165;28;20036;-59
2021/09/19 07:28:31;;;;;;;4.22;2.33;;;;;;;;;;5046023;28;20033;-61
2021/09/19 07:30:57;;;;;;;4.43;2.38;;;;;;;;;;5046491;28;20028;-61
2021/09/19 07:33:24;;;;;;;4.82;2.20;;;;;;;;;;5039394;28;20030;-60
2021/09/19 07:35:51;;;;;;;3.85;2.13;;;;;;;;;;5050832;28;20020;-61
2021/09/19 07:38:18;;;;;;;4.72;2.38;;;;;;;;;;5049592;28;20023;-61
2021/09/19 07:40:44;;;;;;;4.45;2.72;;;;;;;;;;5049338;28;20033;-61
2021/09/19 07:43:10;;;;;;;4.65;2.20;;;;;;;;;;5046929;28;20023;-61
2021/09/19 07:45:36;;;;;;;7.07;2.30;;;;;;;;;;5051870;28;20079;-61
2021/09/19 07:48:08;;;;;;;3.42;1.77;;;;;;;;;;5047717;28;20025;-61
2021/09/19 07:50:34;;;;;;;7.10;2.30;;;;;;;;;;5048862;28;20040;-61
2021/09/19 07:53:00;;;;;;;6.28;1.95;;;;;;;;;;5038150;28;20839;-61
2021/09/19 07:55:28;;;;;;;4.15;2.25;;;;;;;;;;5050063;28;20025;-61
2021/09/19 07:57:54;;;;;;;4.35;2.22;;;;;;;;;;5046209;28;20020;-61
2021/09/19 08:00:20;;;;;;;3.85;2.03;;;;;;;;;;5050361;28;20025;-61
2021/09/19 08:02:46;;;;;;;4.25;1.83;;;;;;;;;;5045032;28;20147;-61
2021/09/19 08:05:12;;;;;;;2.58;1.58;;;;;;;;;;5048982;28;20029;-61
2021/09/19 08:07:42;;;;;;;4.85;2.30;;;;;;;;;;5050713;28;20452;-61
2021/09/19 08:10:09;;;;;;;4.38;3.30;;;;;;;;;;5047693;28;20021;-61
2021/09/19 08:12:35;;;;;;;5.18;2.20;;;;;;;;;;5053532;28;20116;-61
2021/09/19 08:15:01;;;;;;;4.15;2.08;;;;;;;;;;5044207;28;20108;-61
2021/09/19 08:17:27;;;;;;;3.42;1.80;;;;;;;;;;5050533;28;20440;-61
2021/09/19 08:19:53;;;;;;;4.20;2.30;;;;;;;;;;5028719;28;20132;-61
2021/09/19 08:22:19;;;;;;;2.95;1.77;;;;;;;;;;5050312;28;20029;-61
2021/09/19 08:24:45;;;;;;;3.90;2.20;;;;;;;;;;5042406;28;20021;-62
2021/09/19 08:27:11;;;;;;;4.95;2.15;;;;;;;;;;5045625;28;20434;-62
2021/09/19 08:29:37;;;;;;;3.75;2.15;;;;;;;;;;5046830;28;20029;-61
2021/09/19 08:32:03;;;;;;;4.28;2.15;;;;;;;;;;5058072;28;20040;-61
2021/09/19 08:34:30;;;;;;;4.35;2.10;;;;;;;;;;5042894;28;20029;-61
2021/09/19 08:36:56;;;;;;;4.32;2.17;;;;;;;;;;5047086;28;20032;-61
2021/09/19 08:39:22;;;;;;;3.88;2.15;;;;;;;;;;5043148;28;20049;-61
2021/09/19 08:41:50;;;;;;;3.10;1.73;;;;;;;;;;5048940;28;20056;-61
2021/09/19 08:44:17;;;;;;;4.00;1.70;;;;;;;;;;5047876;28;20021;-61
2021/09/19 08:46:44;;;;;;;3.00;1.70;;;;;;;;;;5053079;28;20102;-60
2021/09/19 08:49:10;;;;;;;4.10;1.85;;;;;;;;;;5053005;28;20033;-60
2021/09/19 08:51:36;;;;;;;2.50;1.58;;;;;;;;;;5056903;28;20040;-60
2021/09/19 08:54:02;;;;;;;3.40;1.92;;;;;;;;;;5053977;28;20052;-60
2021/09/19 08:56:28;;;;;;;3.92;1.80;;;;;;;;;;5057364;28;20095;-61
2021/09/19 08:58:54;;;;;;;3.65;1.70;;;;;;;;;;5049171;28;20033;-61
2021/09/19 09:01:21;;;;;;;4.05;1.42;;;;;;;;;;5051389;28;20104;-60
2021/09/19 09:03:47;;;;;;;4.78;1.83;;;;;;;;;;5048863;28;20554;-60
2021/09/19 09:06:17;;;;;;;2.88;1.52;;;;;;;;;;5062001;28;20457;-60
2021/09/19 09:08:44;;;;;;;5.05;2.00;;;;;;;;;;5064953;28;20487;-61
2021/09/19 09:11:11;;;;;;;3.05;1.30;;;;;;;;;;5051950;28;20017;-60
2021/09/19 09:13:37;;;;;;;2.80;1.75;;;;;;;;;;5040016;28;20043;-60
2021/09/19 09:16:06;;;;;;;2.42;1.70;;;;;;;;;;5053251;28;20428;-61
2021/09/19 09:18:39;;;;;;;2.30;1.50;;;;;;;;;;5063979;28;20393;-61
2021/09/19 09:21:18;;;;;;;4.18;1.90;;;;;;;;;;5052434;28;20065;-61
2021/09/19 09:23:45;;;;;;;2.35;1.48;;;;;;;;;;5067559;28;20496;-61
2021/09/19 09:26:18;;;;;;;4.22;2.00;;;;;;;;;;5047772;28;20144;-61
2021/09/19 09:28:44;;;;;;;4.32;1.30;;;;;;;;;;5052804;28;20501;-61
2021/09/19 09:31:11;;;;;;;3.10;1.50;;;;;;;;;;5051313;28;20414;-61
2021/09/19 09:33:37;;;;;;;3.35;1.88;;;;;;;;;;5047768;28;20025;-61
2021/09/19 09:36:07;;;;;;;2.58;1.45;;;;;;;;;;5055247;28;20104;-61
2021/09/19 09:38:34;;;;;;;2.72;1.67;;;;;;;;;;5050850;28;20422;-61
2021/09/19 09:41:00;;;;;;;2.30;1.42;;;;;;;;;;5051565;28;20029;-61
2021/09/19 09:43:26;;;;;;;3.35;1.50;;;;;;;;;;5051772;28;20037;-61
2021/09/19 09:45:52;;;;;;;2.50;1.65;;;;;;;;;;5050497;28;20033;-61
2021/09/19 09:48:25;;;;;;;3.58;1.52;;;;;;;;;;5051132;28;20484;-61
2021/09/19 09:50:52;;;;;;;1.92;1.10;;;;;;;;;;5052716;28;20071;-60
2021/09/19 09:53:21;;;;;;;3.28;1.83;;;;;;;;;;5041491;28;20028;-60
2021/09/19 09:55:48;;;;;;;1.83;1.30;;;;;;;;;;5046401;28;20040;-60
2021/09/19 09:58:18;;;;;;;2.95;1.38;;;;;;;;;;5050099;28;20025;-61
2021/09/19 10:00:44;;;;;;;3.50;1.70;;;;;;;;;;5045364;28;20026;-59
2021/09/19 10:03:11;;;;;;;1.95;1.20;;;;;;;;;;5050556;28;20025;-60
2021/09/19 10:05:37;;;;;;;3.13;1.55;;;;;;;;;;5048736;28;20036;-60
2021/09/19 10:08:03;;;;;;;1.80;1.10;;;;;;;;;;5066461;28;20021;-61
2021/09/19 10:10:31;;;;;;;2.85;1.55;;;;;;;;;;5051290;28;20021;-59
2021/09/19 10:12:58;;;;;;;3.70;1.52;;;;;;;;;;5060136;28;20032;-60
2021/09/19 10:15:25;;;;;;;2.90;1.45;;;;;;;;;;5043975;28;20029;-59
2021/09/19 10:17:51;;;;;;;1.85;1.10;;;;;;;;;;5072442;28;20025;-60
2021/09/19 10:20:22;;;;;;;2.30;1.30;;;;;;;;;;5069183;28;20476;-60
2021/09/19 10:22:48;;;;;;;2.03;1.25;;;;;;;;;;5073728;28;20024;-59
2021/09/19 10:25:26;;;;;;;5.10;1.60;;;;;;;;;;5055351;28;20047;-60
2021/09/19 10:27:53;;;;;;;2.58;1.50;;;;;;;;;;5054017;28;20119;-59
2021/09/19 10:30:19;;;;;;;3.75;1.33;;;;;;;;;;5042433;28;20033;-60
2021/09/19 10:32:47;;;;;;;2.78;1.30;;;;;;;;;;5057787;28;20033;-60
2021/09/19 10:35:18;;;;;;;2.10;1.30;;;;;;;;;;5065391;28;20117;-60
2021/09/19 10:37:52;;;;;;;3.75;1.60;;;;;;;;;;5054470;28;20053;-58
2021/09/19 10:40:36;;;;;;;2.25;1.40;;;;;;;;;;5057713;28;20044;-60
2021/09/19 10:43:06;;;;;;;1.90;1.20;;;;;;;;;;5042136;28;20052;-58
2021/09/19 10:45:51;;;;;;;3.95;1.67;;;;;;;;;;5064186;28;20335;-60
2021/09/19 10:48:18;;;;;;;2.35;1.20;;;;;;;;;;5045489;28;20356;-60
2021/09/19 10:50:46;;;;;;;3.00;1.40;;;;;;;;;;5061706;28;20048;-59
2021/09/19 10:53:19;;;;;;;1.65;0.88;;;;;;;;;;5048030;28;20471;-60
2021/09/19 10:55:51;;;;;;;4.43;1.02;;;;;;;;;;5050426;28;20368;-60
2021/09/19 10:58:25;;;;;;;2.20;1.48;;;;;;;;;;5052374;28;20021;-60
2021/09/19 11:01:06;;;;;;;2.28;1.23;;;;;;;;;;5053342;28;20403;-60
2021/09/19 11:03:32;;;;;;;2.20;1.33;;;;;;;;;;5039613;28;20030;-60
2021/09/19 11:05:59;;;;;;;1.73;0.95;;;;;;;;;;5032871;28;20086;-59
2021/09/19 11:08:25;;;;;;;1.52;0.98;;;;;;;;;;5037622;28;20512;-60
2021/09/19 11:10:58;;;;;;;1.77;1.20;;;;;;;;;;5046825;28;20025;-60
2021/09/19 11:13:27;;;;;;;2.55;1.33;;;;;;;;;;5053113;28;20084;-60
2021/09/19 11:16:06;;;;;;;1.58;1.08;;;;;;;;;;5049292;28;20025;-60
2021/09/19 11:18:38;;;;;;;1.77;1.35;;;;;;;;;;5050657;28;20017;-60
2021/09/19 11:21:10;;;;;;;3.85;1.40;;;;;;;;;;5039895;28;20444;-60
2021/09/19 11:23:38;;;;;;;2.63;1.23;;;;;;;;;;5052865;28;20032;-60
2021/09/19 11:26:04;;;;;;;2.90;1.13;;;;;;;;;;5058445;28;20120;-59
2021/09/19 11:28:33;;;;;;;3.08;1.20;;;;;;;;;;5041680;28;20103;-59
2021/09/19 11:30:59;;;;;;;2.10;1.42;;;;;;;;;;5051324;28;20029;-60
2021/09/19 11:33:25;;;;;;;3.05;1.05;;;;;;;;;;5046108;28;20108;-59
2021/09/19 11:35:51;;;;;;;1.90;1.40;;;;;;;;;;5045502;28;20141;-60
2021/09/19 11:38:20;;;;;;;3.20;1.20;;;;;;;;;;5052581;28;20107;-60
2021/09/19 11:40:46;;;;;;;2.00;1.20;;;;;;;;;;5055992;28;20029;-60
2021/09/19 11:43:12;;;;;;;2.35;1.48;;;;;;;;;;5048172;28;20504;-61
2021/09/19 11:45:38;;;;;;;2.03;1.20;;;;;;;;;;5047925;28;20029;-60
2021/09/19 11:48:08;;;;;;;3.38;1.08;;;;;;;;;;5051282;28;20170;-60
2021/09/19 11:50:37;;;;;;;2.22;1.30;;;;;;;;;;5043273;28;20018;-59
2021/09/19 11:53:06;;;;;;;1.85;1.35;;;;;;;;;;5047211;28;20479;-61
2021/09/19 11:55:32;;;;;;;2.75;1.20;;;;;;;;;;5028490;28;20108;-59
2021/09/19 11:57:59;;;;;;;2.35;1.35;;;;;;;;;;5056784;28;20268;-59
2021/09/19 12:00:29;;;;;;;2.53;1.35;;;;;;;;;;5043058;28;20453;-60
2021/09/19 12:02:55;;;;;;;2.30;1.15;;;;;;;;;;5042158;28;20523;-60
2021/09/19 12:05:24;;;;;;;1.98;1.13;;;;;;;;;;5042214;28;20112;-60
2021/09/19 12:07:50;;;;;;;2.65;1.42;;;;;;;;;;5034814;28;20033;-59
2021/09/19 12:10:16;;;;;;;2.03;1.02;;;;;;;;;;5043244;28;20124;-60
2021/09/19 12:12:42;;;;;;;1.95;1.05;;;;;;;;;;5057128;28;20154;-60
2021/09/19 12:15:08;;;;;;;2.13;1.10;;;;;;;;;;5061855;28;20044;-59
2021/09/19 12:17:36;;;;;;;2.05;1.15;;;;;;;;;;5053744;28;20480;-60
2021/09/19 12:20:11;;;;;;;2.90;1.50;;;;;;;;;;5049329;28;20048;-60
2021/09/19 12:22:37;;;;;;;2.70;1.55;;;;;;;;;;5043394;28;20029;-59
2021/09/19 12:25:05;;;;;;;3.08;1.60;;;;;;;;;;5054162;28;20075;-59
2021/09/19 12:27:32;;;;;;;2.15;1.45;;;;;;;;;;5040067;28;20029;-60
2021/09/19 12:29:58;;;;;;;1.92;1.27;;;;;;;;;;5040716;28;20489;-60
2021/09/19 12:32:49;;;;;;;5.20;1.50;;;;;;;;;;5060799;28;20032;-60
2021/09/19 12:35:24;;;;;;;2.15;1.25;;;;;;;;;;5045137;28;20045;-60
2021/09/19 12:37:50;;;;;;;2.38;1.27;;;;;;;;;;5064601;28;20536;-60
2021/09/19 12:40:17;;;;;;;1.50;1.05;;;;;;;;;;5040848;28;20152;-60
2021/09/19 12:42:43;;;;;;;2.25;1.30;;;;;;;;;;5048834;28;20064;-60
2021/09/19 12:45:11;;;;;;;2.33;1.15;;;;;;;;;;5055401;28;20021;-60
2021/09/19 12:47:38;;;;;;;3.75;1.27;;;;;;;;;;5068726;28;20025;-60
2021/09/19 12:50:10;;;;;;;2.53;1.40;;;;;;;;;;5050577;28;20025;-59
2021/09/19 12:52:37;;;;;;;2.28;1.30;;;;;;;;;;5049742;28;20147;-60
2021/09/19 12:55:04;;;;;;;1.80;1.10;;;;;;;;;;5066994;28;20030;-60
2021/09/19 12:57:31;;;;;;;2.97;1.30;;;;;;;;;;5058788;28;20033;-60
2021/09/19 12:59:57;;;;;;;5.32;1.60;;;;;;;;;;5058417;28;20458;-60
2021/09/19 13:02:23;;;;;;;3.70;1.60;;;;;;;;;;5056693;28;20115;-59
2021/09/19 13:04:49;;;;;;;2.55;1.27;;;;;;;;;;5049807;28;20083;-59
2021/09/19 13:07:16;;;;;;;2.53;1.20;;;;;;;;;;5067108;28;20040;-60
2021/09/19 13:09:43;;;;;;;2.08;1.27;;;;;;;;;;5061472;28;20107;-60
2021/09/19 13:12:09;;;;;;;2.15;1.20;;;;;;;;;;5066760;28;20039;-60
2021/09/19 13:14:36;;;;;;;3.05;1.48;;;;;;;;;;5062665;28;20055;-60
2021/09/19 13:17:02;;;;;;;2.60;1.58;;;;;;;;;;5064015;28;20555;-60
2021/09/19 13:19:28;;;;;;;1.90;1.13;;;;;;;;;;5050879;28;20131;-60
2021/09/19 13:21:54;;;;;;;2.47;1.40;;;;;;;;;;5054438;28;20025;-59
2021/09/19 13:24:20;;;;;;;1.65;1.15;;;;;;;;;;5057737;28;20108;-59
2021/09/19 13:26:47;;;;;;;2.65;1.58;;;;;;;;;;5051547;28;20025;-58
2021/09/19 13:29:16;;;;;;;1.38;1.08;;;;;;;;;;5044669;28;20531;-60
2021/09/19 13:31:42;;;;;;;2.40;1.27;;;;;;;;;;5048530;28;20489;-59
2021/09/19 13:34:07;;;;;;;1.88;1.08;;;;;;;;;;5061357;28;20090;-58
2021/09/19 13:36:33;;;;;;;2.80;1.27;;;;;;;;;;5056023;28;20025;-60
2021/09/19 13:38:59;;;;;;;2.33;1.30;;;;;;;;;;5055269;28;20053;-60
2021/09/19 13:41:25;;;;;;;3.78;0.90;;;;;;;;;;5057098;28;20090;-60
2021/09/19 13:43:52;;;;;;;2.22;1.20;;;;;;;;;;5056288;28;20033;-60
2021/09/19 13:46:18;;;;;;;2.88;1.20;;;;;;;;;;5061481;28;20074;-60
2021/09/19 13:48:45;;;;;;;1.63;1.30;;;;;;;;;;5056746;28;20465;-60
2021/09/19 13:51:11;;;;;;;2.55;1.40;;;;;;;;;;5056487;28;20508;-58
2021/09/19 13:53:37;;;;;;;2.83;1.25;;;;;;;;;;5056588;28;20025;-59
2021/09/19 13:56:04;;;;;;;1.90;1.20;;;;;;;;;;5054145;28;20052;-60
2021/09/19 13:58:30;;;;;;;2.55;1.40;;;;;;;;;;5050469;28;20040;-58
2021/09/19 14:00:55;;;;;;;1.58;0.98;;;;;;;;;;5046652;28;20025;-60
2021/09/19 14:03:21;;;;;;;2.30;1.23;;;;;;;;;;5057667;28;20067;-60
2021/09/19 14:05:47;;;;;;;3.17;1.40;;;;;;;;;;5055837;28;20411;-60
2021/09/19 14:08:14;;;;;;;2.47;1.38;;;;;;;;;;5051798;28;20052;-60
2021/09/19 14:10:40;;;;;;;2.40;1.17;;;;;;;;;;5051454;28;20108;-58
2021/09/19 14:13:06;;;;;;;2.42;1.13;;;;;;;;;;5051960;28;20029;-60
2021/09/19 14:15:33;;;;;;;3.88;1.27;;;;;;;;;;5045117;28;20071;-60
2021/09/19 14:17:59;;;;;;;2.47;1.20;;;;;;;;;;5053519;28;20036;-60
2021/09/19 14:20:27;;;;;;;2.38;1.15;;;;;;;;;;5055090;28;20041;-60
2021/09/19 14:22:53;;;;;;;2.33;1.23;;;;;;;;;;5057195;28;20048;-60
2021/09/19 14:25:19;;;;;;;3.08;1.40;;;;;;;;;;5044229;28;20492;-60
2021/09/19 14:27:45;;;;;;;3.42;1.45;;;;;;;;;;5047724;28;20086;-60
2021/09/19 14:30:12;;;;;;;2.45;1.48;;;;;;;;;;5047024;28;20470;-60
2021/09/19 14:32:39;;;;;;;2.55;1.40;;;;;;;;;;5061637;28;20503;-59
2021/09/19 14:35:05;;;;;;;1.92;1.33;;;;;;;;;;5046182;28;20036;-60
2021/09/19 14:37:33;;;;;;;1.67;1.23;;;;;;;;;;5049450;28;20028;-60
2021/09/19 14:39:59;;;;;;;1.85;1.23;;;;;;;;;;5051810;28;20104;-60